Flight Track Log - Related Links

Times and Time Zones

All times are in EST time to prevent confusion due to time zone crossing. See the FIN666 flight status page for this flight to view local times or setup timezone preferences in your user account.

Time Position Orientation Groundspeed Altitude Reporting Facility
EST Latitude Longitude Course Direction KTS MPH feet Rate Location/Type
Mon 07:29:00 AM 55.8420 13.1192 49° Northeast  Level Estimated
Mon 07:30:00 AM 55.9164 13.2747 50° Northeast  Level Estimated
Mon 07:31:00 AM 55.9905 13.4309 50° Northeast  Level Estimated
Mon 07:32:00 AM 56.0644 13.5877 50° Northeast  Level Estimated
Mon 07:33:00 AM 56.1381 13.7451 50° Northeast  Level Estimated
Mon 07:34:00 AM 56.2116 13.9031 50° Northeast  Level Estimated
Mon 07:35:00 AM 56.2944 14.0822 50° Northeast  Level Estimated
Mon 07:36:00 AM 56.3769 14.2620 50° Northeast  Level Estimated
Mon 07:37:00 AM 56.4592 14.4427 50° Northeast  Level Estimated
Mon 07:38:00 AM 56.5411 14.6241 51° Northeast  Level Estimated
Mon 07:39:00 AM 56.6229 14.8063 51° Northeast  Level Estimated
Mon 07:40:00 AM 56.7043 14.9894 51° Northeast  Level Estimated
Mon 07:41:00 AM 56.7855 15.1732 51° Northeast  Level Estimated
Mon 07:42:00 AM 56.8664 15.3577 51° Northeast  Level Estimated
Mon 07:43:00 AM 56.9470 15.5431 51° Northeast  Level Estimated
Mon 07:44:00 AM 57.0274 15.7294 52° Northeast  Level Estimated
Mon 07:45:00 AM 57.1075 15.9164 52° Northeast  Level Estimated
Mon 07:46:00 AM 57.1873 16.1042 52° Northeast  Level Estimated
Mon 07:47:00 AM 57.2668 16.2928 52° Northeast  Level Estimated
Mon 07:48:00 AM 57.3461 16.4823 52° Northeast  Level Estimated
Mon 07:49:00 AM 57.4250 16.6725 52° Northeast  Level Estimated
Mon 07:50:00 AM 57.5037 16.8636 52° Northeast  Level Estimated
Mon 07:51:00 AM 57.5821 17.0555 53° Northeast  Level Estimated
Mon 07:52:00 AM 57.6601 17.2482 53° Northeast  Level Estimated
Mon 07:53:00 AM 57.7379 17.4418 53° Northeast  Level Estimated
Mon 07:54:00 AM 57.8154 17.6362 53° Northeast  Level Estimated
Mon 07:55:00 AM 57.8926 17.8314 53° Northeast  Level Estimated
Mon 07:56:00 AM 57.9695 18.0275 53° Northeast  Level Estimated
Mon 07:57:00 AM 58.0461 18.2244 54° Northeast  Level Estimated
Mon 07:58:00 AM 58.1224 18.4221 54° Northeast  Level Estimated
Mon 07:59:00 AM 58.1983 18.6207 54° Northeast  Level Estimated
Mon 08:00:00 AM 58.2740 18.8202 54° Northeast  Level Estimated
Mon 08:01:00 AM 58.3494 19.0205 54° Northeast  Level Estimated
Mon 08:02:00 AM 58.4244 19.2216 54° Northeast  Level Estimated
Mon 08:03:00 AM 58.4991 19.4237 55° Northeast  Level Estimated
Mon 08:04:00 AM 58.5736 19.6265 55° Northeast  Level Estimated
Mon 08:05:00 AM 58.6476 19.8303 55° Northeast  Level Estimated
Mon 08:06:00 AM 58.7214 20.0349 55° Northeast  Level Estimated
Mon 08:07:00 AM 58.7948 20.2403 55° Northeast  Level Estimated
Mon 08:08:00 AM 58.8680 20.4467 56° Northeast  Level Estimated
Mon 08:09:00 AM 58.9407 20.6539 56° Northeast  Level Estimated
Mon 08:10:00 AM 59.0132 20.8620 56° Northeast  Level Estimated
Mon 08:11:00 AM 59.0853 21.0709 56° Northeast  Level Estimated
Mon 08:12:00 AM 59.1571 21.2808 56° Northeast  Level Estimated
Mon 08:13:00 AM 59.2285 21.4915 56° Northeast  Level Estimated
Mon 08:14:00 AM 59.2943 21.6873 57° Northeast  Level Estimated
Mon 08:15:00 AM 59.3598 21.8838 57° Northeast  Level Estimated
Mon 08:16:00 AM 59.4250 22.0811 57° Northeast  Level Estimated
Mon 08:17:00 AM 59.4899 22.2791 57° Northeast  Level Estimated
Mon 08:18:00 AM 59.5545 22.4780 57° Northeast  Level Estimated
Mon 08:19:00 AM 59.6188 22.6775 57° Northeast  Level Estimated
Mon 08:20:00 AM 59.6828 22.8779 58° Northeast  Level Estimated
Mon 08:21:00 AM 59.7465 23.0790 58° Northeast  Level Estimated
Mon 08:22:00 AM 59.8099 23.2809 58° Northeast  Level Estimated
Mon 08:23:00 AM 59.8730 23.4835 58° Northeast  Level Estimated
Mon 08:24:00 AM 59.9357 23.6869 58° Northeast  Level Estimated
Mon 08:25:00 AM 59.9982 23.8911 58° Northeast  Level Estimated
Mon 08:26:00 AM 60.0603 24.0960 59° Northeast  Level Estimated
Mon 08:27:00 AM 60.1221 24.3018 59° Northeast  Level Estimated
Mon 08:28:00 AM 60.1836 24.5082 59° Northeast  Level Estimated
Mon 08:29:00 AM 60.2448 24.7155 59° Northeast  Level Estimated
Mon 08:30:00 AM 60.3056 24.9235 59° Northeast  Level Estimated
Mon 08:31:00 AM 60.3172 24.9633 60° Northeast  Level Estimated
Mon 08:32:00 AM 60.3172 24.9633 37° Northeast  Level Estimated
Mon 08:33:00 AM 60.3172 24.9633 37° Northeast  Level Estimated
Mon 08:34:00 AM 60.3172 24.9633 37° Northeast  Level Estimated
Mon 08:35:00 AM 60.3172 24.9633 37° Northeast  Level Estimated
Mon 08:36:00 AM 60.3172 24.9633 37° Northeast  Level Estimated
Mon 08:37:00 AM 60.3172 24.9633 37° Northeast  Level Estimated
Mon 08:38:00 AM 60.3172 24.9633 37° Northeast  Level Estimated
Mon 08:39:00 AM 60.3172 24.9633 37° Northeast  Level Estimated
Mon 08:40:00 AM 60.3172 24.9633 37° Northeast  Level Estimated
Mon 08:41:00 AM 60.3172 24.9633 37° Northeast  Level Estimated
Mon 08:42:00 AM 60.3172 24.9633 37° Northeast  Level Estimated
Mon 08:43:00 AM 60.3172 24.9633 37° Northeast  Level Estimated
Mon 08:44:00 AM 60.3172 24.9633 37° Northeast  Level Estimated

Login

Don't have an account? Register now (free) for customized features, flight alerts, and more!